sensor_id;sensor_type;location;lat;lon;timestamp;temperature;humidity
18624;DHT22;9441;51.420;7.036;2024-03-17T00:01:01;5.90;1.00
18624;DHT22;9441;51.420;7.036;2024-03-17T00:02:02;6.00;1.00
18624;DHT22;9441;51.420;7.036;2024-03-17T00:03:04;5.90;1.00
18624;DHT22;9441;51.420;7.036;2024-03-17T00:04:07;6.00;1.00
18624;DHT22;9441;51.420;7.036;2024-03-17T00:05:09;5.90;1.00
18624;DHT22;9441;51.420;7.036;2024-03-17T00:06:10;5.80;1.00
18624;DHT22;9441;51.420;7.036;2024-03-17T00:07:13;5.70;1.00
18624;DHT22;9441;51.420;7.036;2024-03-17T00:08:14;5.70;2.70
18624;DHT22;9441;51.420;7.036;2024-03-17T00:09:15;5.80;99.90
18624;DHT22;9441;51.420;7.036;2024-03-17T00:10:17;5.80;99.90
18624;DHT22;9441;51.420;7.036;2024-03-17T00:11:19;5.80;99.90
18624;DHT22;9441;51.420;7.036;2024-03-17T00:12:20;5.80;99.90
18624;DHT22;9441;51.420;7.036;2024-03-17T00:13:21;5.80;99.90
18624;DHT22;9441;51.420;7.036;2024-03-17T00:14:23;5.70;99.90
18624;DHT22;9441;51.420;7.036;2024-03-17T00:15:24;5.70;99.90
18624;DHT22;9441;51.420;7.036;2024-03-17T00:16:25;5.70;99.90
18624;DHT22;9441;51.420;7.036;2024-03-17T00:17:27;5.80;1.00
18624;DHT22;9441;51.420;7.036;2024-03-17T00:18:28;5.70;1.00
18624;DHT22;9441;51.420;7.036;2024-03-17T00:19:31;5.70;1.00
18624;DHT22;9441;51.420;7.036;2024-03-17T00:20:32;5.80;1.00
18624;DHT22;9441;51.420;7.036;2024-03-17T00:21:34;5.70;1.00
18624;DHT22;9441;51.420;7.036;2024-03-17T00:22:36;5.70;1.00
18624;DHT22;9441;51.420;7.036;2024-03-17T00:23:40;5.70;1.00
18624;DHT22;9441;51.420;7.036;2024-03-17T00:24:43;5.60;1.00
18624;DHT22;9441;51.420;7.036;2024-03-17T00:25:46;5.60;1.00
18624;DHT22;9441;51.420;7.036;2024-03-17T00:26:47;5.50;1.00
18624;DHT22;9441;51.420;7.036;2024-03-17T00:27:48;5.40;1.00
18624;DHT22;9441;51.420;7.036;2024-03-17T00:28:51;5.40;1.00
18624;DHT22;9441;51.420;7.036;2024-03-17T00:29:52;5.50;78.40
18624;DHT22;9441;51.420;7.036;2024-03-17T00:30:53;5.50;99.90
18624;DHT22;9441;51.420;7.036;2024-03-17T00:31:54;5.50;99.90
18624;DHT22;9441;51.420;7.036;2024-03-17T00:32:58;5.60;99.90
18624;DHT22;9441;51.420;7.036;2024-03-17T00:34:00;5.60;99.90
18624;DHT22;9441;51.420;7.036;2024-03-17T00:35:02;5.60;99.90
18624;DHT22;9441;51.420;7.036;2024-03-17T00:36:06;5.50;99.90
18624;DHT22;9441;51.420;7.036;2024-03-17T00:37:07;5.40;99.90
18624;DHT22;9441;51.420;7.036;2024-03-17T00:38:08;5.40;99.90
18624;DHT22;9441;51.420;7.036;2024-03-17T00:39:11;5.20;1.00
18624;DHT22;9441;51.420;7.036;2024-03-17T00:40:13;5.30;1.00
18624;DHT22;9441;51.420;7.036;2024-03-17T00:41:14;5.30;1.00
18624;DHT22;9441;51.420;7.036;2024-03-17T00:42:16;5.20;1.00
18624;DHT22;9441;51.420;7.036;2024-03-17T00:43:17;5.30;1.00
18624;DHT22;9441;51.420;7.036;2024-03-17T00:44:18;5.40;1.00
18624;DHT22;9441;51.420;7.036;2024-03-17T00:45:20;5.40;22.90
18624;DHT22;9441;51.420;7.036;2024-03-17T00:46:22;5.30;99.40
18624;DHT22;9441;51.420;7.036;2024-03-17T00:47:23;5.30;99.90
18624;DHT22;9441;51.420;7.036;2024-03-17T00:48:24;5.30;99.90
18624;DHT22;9441;51.420;7.036;2024-03-17T00:49:25;5.20;99.90
18624;DHT22;9441;51.420;7.036;2024-03-17T00:50:28;5.30;99.90
18624;DHT22;9441;51.420;7.036;2024-03-17T00:51:29;5.20;99.90
18624;DHT22;9441;51.420;7.036;2024-03-17T00:52:30;5.20;1.00
18624;DHT22;9441;51.420;7.036;2024-03-17T00:53:31;5.30;1.00
18624;DHT22;9441;51.420;7.036;2024-03-17T00:54:33;5.30;1.00
18624;DHT22;9441;51.420;7.036;2024-03-17T00:55:34;5.30;1.00
18624;DHT22;9441;51.420;7.036;2024-03-17T00:56:36;5.30;1.00
18624;DHT22;9441;51.420;7.036;2024-03-17T00:57:38;5.30;1.00
18624;DHT22;9441;51.420;7.036;2024-03-17T00:58:39;5.20;1.00
18624;DHT22;9441;51.420;7.036;2024-03-17T00:59:40;5.10;1.00
18624;DHT22;9441;51.420;7.036;2024-03-17T01:00:43;5.00;1.00
18624;DHT22;9441;51.420;7.036;2024-03-17T01:01:44;4.90;1.00
18624;DHT22;9441;51.420;7.036;2024-03-17T01:02:45;5.00;1.00
18624;DHT22;9441;51.420;7.036;2024-03-17T01:03:46;5.00;72.00
18624;DHT22;9441;51.420;7.036;2024-03-17T01:04:48;5.10;99.90
18624;DHT22;9441;51.420;7.036;2024-03-17T01:05:51;5.00;99.90
18624;DHT22;9441;51.420;7.036;2024-03-17T01:06:53;5.00;99.90
18624;DHT22;9441;51.420;7.036;2024-03-17T01:07:55;5.00;1.00
18624;DHT22;9441;51.420;7.036;2024-03-17T01:08:56;5.10;1.00
18624;DHT22;9441;51.420;7.036;2024-03-17T01:09:57;5.10;1.00
18624;DHT22;9441;51.420;7.036;2024-03-17T01:10:59;5.10;1.00
18624;DHT22;9441;51.420;7.036;2024-03-17T01:12:00;5.10;1.00
18624;DHT22;9441;51.420;7.036;2024-03-17T01:13:01;5.10;1.00
18624;DHT22;9441;51.420;7.036;2024-03-17T01:14:02;5.10;1.00
18624;DHT22;9441;51.420;7.036;2024-03-17T01:15:05;5.10;27.50
18624;DHT22;9441;51.420;7.036;2024-03-17T01:16:06;5.00;1.00
18624;DHT22;9441;51.420;7.036;2024-03-17T01:17:07;5.00;14.60
18624;DHT22;9441;51.420;7.036;2024-03-17T01:18:09;5.00;25.90
18624;DHT22;9441;51.420;7.036;2024-03-17T01:19:11;4.80;49.40
18624;DHT22;9441;51.420;7.036;2024-03-17T01:20:12;5.00;99.90
18624;DHT22;9441;51.420;7.036;2024-03-17T01:21:14;4.90;99.90
18624;DHT22;9441;51.420;7.036;2024-03-17T01:22:16;5.00;99.90
18624;DHT22;9441;51.420;7.036;2024-03-17T01:23:17;5.00;1.00
18624;DHT22;9441;51.420;7.036;2024-03-17T01:24:20;5.00;1.00
18624;DHT22;9441;51.420;7.036;2024-03-17T01:25:22;4.90;1.00
18624;DHT22;9441;51.420;7.036;2024-03-17T01:26:23;4.90;1.00
18624;DHT22;9441;51.420;7.036;2024-03-17T01:27:24;4.90;1.00
18624;DHT22;9441;51.420;7.036;2024-03-17T01:28:26;5.00;1.00
18624;DHT22;9441;51.420;7.036;2024-03-17T01:29:27;5.00;1.00
18624;DHT22;9441;51.420;7.036;2024-03-17T01:30:28;5.10;1.00
18624;DHT22;9441;51.420;7.036;2024-03-17T01:31:31;5.10;1.00
18624;DHT22;9441;51.420;7.036;2024-03-17T01:32:32;5.20;1.00
18624;DHT22;9441;51.420;7.036;2024-03-17T01:33:33;5.10;1.00
18624;DHT22;9441;51.420;7.036;2024-03-17T01:34:35;5.10;1.00
18624;DHT22;9441;51.420;7.036;2024-03-17T01:35:36;5.00;1.00
18624;DHT22;9441;51.420;7.036;2024-03-17T01:36:38;5.00;1.00
18624;DHT22;9441;51.420;7.036;2024-03-17T01:37:39;5.00;1.00
18624;DHT22;9441;51.420;7.036;2024-03-17T01:38:41;5.00;1.00
18624;DHT22;9441;51.420;7.036;2024-03-17T01:39:42;5.00;1.00
18624;DHT22;9441;51.420;7.036;2024-03-17T01:40:43;5.00;1.00
18624;DHT22;9441;51.420;7.036;2024-03-17T01:41:45;5.10;1.00
18624;DHT22;9441;51.420;7.036;2024-03-17T01:42:46;4.80;1.00
18624;DHT22;9441;51.420;7.036;2024-03-17T01:43:47;4.80;1.00
18624;DHT22;9441;51.420;7.036;2024-03-17T01:44:49;4.90;1.00
18624;DHT22;9441;51.420;7.036;2024-03-17T01:45:51;5.00;1.00
18624;DHT22;9441;51.420;7.036;2024-03-17T01:46:53;4.90;1.00
18624;DHT22;9441;51.420;7.036;2024-03-17T01:47:54;4.90;1.00
18624;DHT22;9441;51.420;7.036;2024-03-17T01:48:58;4.90;15.60
18624;DHT22;9441;51.420;7.036;2024-03-17T01:50:00;5.00;82.90
18624;DHT22;9441;51.420;7.036;2024-03-17T01:51:01;5.10;99.90
18624;DHT22;9441;51.420;7.036;2024-03-17T01:52:05;5.10;99.90
18624;DHT22;9441;51.420;7.036;2024-03-17T01:53:08;5.10;54.80
18624;DHT22;9441;51.420;7.036;2024-03-17T01:54:11;5.10;1.00
18624;DHT22;9441;51.420;7.036;2024-03-17T01:55:12;5.00;1.00
18624;DHT22;9441;51.420;7.036;2024-03-17T01:56:13;5.00;1.00
18624;DHT22;9441;51.420;7.036;2024-03-17T01:57:16;4.90;1.00
18624;DHT22;9441;51.420;7.036;2024-03-17T01:58:19;5.00;1.00
18624;DHT22;9441;51.420;7.036;2024-03-17T01:59:21;5.00;1.00
18624;DHT22;9441;51.420;7.036;2024-03-17T02:00:24;5.00;1.00
18624;DHT22;9441;51.420;7.036;2024-03-17T02:01:25;4.90;1.00
18624;DHT22;9441;51.420;7.036;2024-03-17T02:02:26;5.10;47.60
18624;DHT22;9441;51.420;7.036;2024-03-17T02:03:27;5.00;1.00
18624;DHT22;9441;51.420;7.036;2024-03-17T02:04:30;5.10;1.00
18624;DHT22;9441;51.420;7.036;2024-03-17T02:05:31;5.10;1.00
18624;DHT22;9441;51.420;7.036;2024-03-17T02:06:32;5.10;1.00
18624;DHT22;9441;51.420;7.036;2024-03-17T02:07:34;5.10;1.00
18624;DHT22;9441;51.420;7.036;2024-03-17T02:08:52;5.10;1.00
18624;DHT22;9441;51.420;7.036;2024-03-17T02:09:53;5.10;1.00
18624;DHT22;9441;51.420;7.036;2024-03-17T02:10:54;4.90;1.00
18624;DHT22;9441;51.420;7.036;2024-03-17T02:11:57;4.90;1.00
18624;DHT22;9441;51.420;7.036;2024-03-17T02:12:58;4.90;1.00
18624;DHT22;9441;51.420;7.036;2024-03-17T02:14:00;4.80;1.00
18624;DHT22;9441;51.420;7.036;2024-03-17T02:15:03;4.80;1.00
18624;DHT22;9441;51.420;7.036;2024-03-17T02:16:06;4.90;1.00
18624;DHT22;9441;51.420;7.036;2024-03-17T02:17:07;4.80;1.00
18624;DHT22;9441;51.420;7.036;2024-03-17T02:18:08;4.90;1.00
18624;DHT22;9441;51.420;7.036;2024-03-17T02:19:10;4.70;1.00
18624;DHT22;9441;51.420;7.036;2024-03-17T02:20:11;4.80;1.00
18624;DHT22;9441;51.420;7.036;2024-03-17T02:21:12;4.70;1.00
18624;DHT22;9441;51.420;7.036;2024-03-17T02:22:15;4.70;1.00
18624;DHT22;9441;51.420;7.036;2024-03-17T02:23:17;4.70;1.00
18624;DHT22;9441;51.420;7.036;2024-03-17T02:24:19;4.80;1.00
18624;DHT22;9441;51.420;7.036;2024-03-17T02:25:20;4.70;1.00
18624;DHT22;9441;51.420;7.036;2024-03-17T02:26:22;4.70;1.00
18624;DHT22;9441;51.420;7.036;2024-03-17T02:27:23;4.70;1.00
18624;DHT22;9441;51.420;7.036;2024-03-17T02:28:25;4.70;1.00
18624;DHT22;9441;51.420;7.036;2024-03-17T02:29:26;4.80;1.00
18624;DHT22;9441;51.420;7.036;2024-03-17T02:30:28;4.80;1.00
18624;DHT22;9441;51.420;7.036;2024-03-17T02:31:29;4.70;1.00
18624;DHT22;9441;51.420;7.036;2024-03-17T02:32:30;4.80;1.00
18624;DHT22;9441;51.420;7.036;2024-03-17T02:33:31;4.70;1.00
18624;DHT22;9441;51.420;7.036;2024-03-17T02:34:33;4.80;62.30
18624;DHT22;9441;51.420;7.036;2024-03-17T02:35:35;4.80;76.20
18624;DHT22;9441;51.420;7.036;2024-03-17T02:36:36;4.70;1.00
18624;DHT22;9441;51.420;7.036;2024-03-17T02:37:38;4.70;1.00
18624;DHT22;9441;51.420;7.036;2024-03-17T02:38:40;4.70;1.00
18624;DHT22;9441;51.420;7.036;2024-03-17T02:40:02;4.70;1.00
18624;DHT22;9441;51.420;7.036;2024-03-17T02:41:06;4.70;16.40
18624;DHT22;9441;51.420;7.036;2024-03-17T02:42:08;4.60;16.30
18624;DHT22;9441;51.420;7.036;2024-03-17T02:43:11;4.70;99.90
18624;DHT22;9441;51.420;7.036;2024-03-17T02:44:12;4.50;16.40
18624;DHT22;9441;51.420;7.036;2024-03-17T02:45:13;4.60;93.10
18624;DHT22;9441;51.420;7.036;2024-03-17T02:46:16;4.60;99.90
18624;DHT22;9441;51.420;7.036;2024-03-17T02:47:18;4.60;99.90
18624;DHT22;9441;51.420;7.036;2024-03-17T02:48:20;4.60;99.90
18624;DHT22;9441;51.420;7.036;2024-03-17T02:49:23;4.60;99.90
18624;DHT22;9441;51.420;7.036;2024-03-17T02:50:25;4.60;99.90
18624;DHT22;9441;51.420;7.036;2024-03-17T02:51:26;4.60;99.90
18624;DHT22;9441;51.420;7.036;2024-03-17T02:52:28;4.60;99.90
18624;DHT22;9441;51.420;7.036;2024-03-17T02:53:30;4.70;99.90
18624;DHT22;9441;51.420;7.036;2024-03-17T02:54:31;4.60;99.90
18624;DHT22;9441;51.420;7.036;2024-03-17T02:55:36;4.60;1.00
18624;DHT22;9441;51.420;7.036;2024-03-17T02:56:37;4.60;1.00
18624;DHT22;9441;51.420;7.036;2024-03-17T02:57:39;4.60;99.90
18624;DHT22;9441;51.420;7.036;2024-03-17T02:58:41;4.60;1.00
18624;DHT22;9441;51.420;7.036;2024-03-17T02:59:43;4.50;99.90
18624;DHT22;9441;51.420;7.036;2024-03-17T03:00:45;4.60;1.00
18624;DHT22;9441;51.420;7.036;2024-03-17T03:01:47;4.60;1.00
18624;DHT22;9441;51.420;7.036;2024-03-17T03:02:48;4.60;1.00
18624;DHT22;9441;51.420;7.036;2024-03-17T03:03:50;4.60;1.00
18624;DHT22;9441;51.420;7.036;2024-03-17T03:04:51;4.60;1.00
18624;DHT22;9441;51.420;7.036;2024-03-17T03:05:53;4.50;99.90
18624;DHT22;9441;51.420;7.036;2024-03-17T03:06:57;4.40;99.90
18624;DHT22;9441;51.420;7.036;2024-03-17T03:07:58;4.50;1.00
18624;DHT22;9441;51.420;7.036;2024-03-17T03:09:02;4.50;99.90
18624;DHT22;9441;51.420;7.036;2024-03-17T03:10:04;4.50;1.00
18624;DHT22;9441;51.420;7.036;2024-03-17T03:11:07;4.50;1.00
18624;DHT22;9441;51.420;7.036;2024-03-17T03:12:10;4.40;1.00
18624;DHT22;9441;51.420;7.036;2024-03-17T03:13:12;4.50;1.00
18624;DHT22;9441;51.420;7.036;2024-03-17T03:14:13;4.50;1.00
18624;DHT22;9441;51.420;7.036;2024-03-17T03:15:14;4.50;1.00
18624;DHT22;9441;51.420;7.036;2024-03-17T03:16:16;4.50;1.00
18624;DHT22;9441;51.420;7.036;2024-03-17T03:17:19;4.50;1.00
18624;DHT22;9441;51.420;7.036;2024-03-17T03:18:20;4.40;1.00
18624;DHT22;9441;51.420;7.036;2024-03-17T03:19:22;4.40;1.00
18624;DHT22;9441;51.420;7.036;2024-03-17T03:20:23;4.40;1.00
18624;DHT22;9441;51.420;7.036;2024-03-17T03:21:26;4.40;1.00
18624;DHT22;9441;51.420;7.036;2024-03-17T03:22:27;4.40;1.00
18624;DHT22;9441;51.420;7.036;2024-03-17T03:23:29;4.40;1.00
18624;DHT22;9441;51.420;7.036;2024-03-17T03:24:32;4.50;99.90
18624;DHT22;9441;51.420;7.036;2024-03-17T03:25:33;4.50;99.90
18624;DHT22;9441;51.420;7.036;2024-03-17T03:26:35;4.60;99.90
18624;DHT22;9441;51.420;7.036;2024-03-17T03:27:36;4.50;99.90
18624;DHT22;9441;51.420;7.036;2024-03-17T03:28:39;4.50;99.90
18624;DHT22;9441;51.420;7.036;2024-03-17T03:29:40;4.40;99.90
18624;DHT22;9441;51.420;7.036;2024-03-17T03:30:42;4.40;99.90
18624;DHT22;9441;51.420;7.036;2024-03-17T03:31:43;4.50;1.00
18624;DHT22;9441;51.420;7.036;2024-03-17T03:32:45;4.40;1.00
18624;DHT22;9441;51.420;7.036;2024-03-17T03:33:47;4.40;1.00
18624;DHT22;9441;51.420;7.036;2024-03-17T03:34:49;4.50;1.00
18624;DHT22;9441;51.420;7.036;2024-03-17T03:35:50;4.50;1.00
18624;DHT22;9441;51.420;7.036;2024-03-17T03:36:51;4.50;1.00
18624;DHT22;9441;51.420;7.036;2024-03-17T03:37:54;4.50;1.00
18624;DHT22;9441;51.420;7.036;2024-03-17T03:38:55;4.50;71.80
18624;DHT22;9441;51.420;7.036;2024-03-17T03:39:59;4.50;99.90
18624;DHT22;9441;51.420;7.036;2024-03-17T03:41:06;4.60;99.90
18624;DHT22;9441;51.420;7.036;2024-03-17T03:42:08;4.60;99.90
18624;DHT22;9441;51.420;7.036;2024-03-17T03:43:09;4.60;99.90
18624;DHT22;9441;51.420;7.036;2024-03-17T03:44:10;4.60;99.90
18624;DHT22;9441;51.420;7.036;2024-03-17T03:45:12;4.50;99.90
18624;DHT22;9441;51.420;7.036;2024-03-17T03:46:13;4.50;99.90
18624;DHT22;9441;51.420;7.036;2024-03-17T03:47:15;4.50;99.90
18624;DHT22;9441;51.420;7.036;2024-03-17T03:48:16;4.60;1.00
18624;DHT22;9441;51.420;7.036;2024-03-17T03:49:18;4.60;1.00
18624;DHT22;9441;51.420;7.036;2024-03-17T03:50:21;4.50;1.00
18624;DHT22;9441;51.420;7.036;2024-03-17T03:51:23;4.50;1.00
18624;DHT22;9441;51.420;7.036;2024-03-17T03:52:25;4.50;1.00
18624;DHT22;9441;51.420;7.036;2024-03-17T03:53:26;4.50;1.00
18624;DHT22;9441;51.420;7.036;2024-03-17T03:54:27;4.50;1.00
18624;DHT22;9441;51.420;7.036;2024-03-17T03:55:31;4.40;1.00
18624;DHT22;9441;51.420;7.036;2024-03-17T03:56:32;4.50;1.00
18624;DHT22;9441;51.420;7.036;2024-03-17T03:57:33;4.60;1.00
18624;DHT22;9441;51.420;7.036;2024-03-17T03:58:35;4.60;1.00
18624;DHT22;9441;51.420;7.036;2024-03-17T03:59:36;4.60;1.00
18624;DHT22;9441;51.420;7.036;2024-03-17T04:00:38;4.60;1.00
18624;DHT22;9441;51.420;7.036;2024-03-17T04:01:40;4.60;5.10
18624;DHT22;9441;51.420;7.036;2024-03-17T04:02:43;4.60;27.40
18624;DHT22;9441;51.420;7.036;2024-03-17T04:03:44;4.50;1.00
18624;DHT22;9441;51.420;7.036;2024-03-17T04:04:46;4.60;52.30
18624;DHT22;9441;51.420;7.036;2024-03-17T04:05:47;4.50;63.40
18624;DHT22;9441;51.420;7.036;2024-03-17T04:06:49;4.60;99.90
18624;DHT22;9441;51.420;7.036;2024-03-17T04:07:50;4.60;99.90
18624;DHT22;9441;51.420;7.036;2024-03-17T04:08:51;4.60;99.90
18624;DHT22;9441;51.420;7.036;2024-03-17T04:09:53;4.60;99.90
18624;DHT22;9441;51.420;7.036;2024-03-17T04:10:56;4.50;99.90
18624;DHT22;9441;51.420;7.036;2024-03-17T04:11:57;4.50;99.90
18624;DHT22;9441;51.420;7.036;2024-03-17T04:12:59;4.50;99.90
18624;DHT22;9441;51.420;7.036;2024-03-17T04:14:00;4.50;99.90
18624;DHT22;9441;51.420;7.036;2024-03-17T04:15:02;4.50;99.90
18624;DHT22;9441;51.420;7.036;2024-03-17T04:16:05;4.60;99.90
18624;DHT22;9441;51.420;7.036;2024-03-17T04:17:07;4.60;99.90
18624;DHT22;9441;51.420;7.036;2024-03-17T04:18:09;4.60;99.90
18624;DHT22;9441;51.420;7.036;2024-03-17T04:19:10;4.60;99.90
18624;DHT22;9441;51.420;7.036;2024-03-17T04:20:12;4.60;99.90
18624;DHT22;9441;51.420;7.036;2024-03-17T04:21:14;4.60;99.90
18624;DHT22;9441;51.420;7.036;2024-03-17T04:22:17;4.70;99.90
18624;DHT22;9441;51.420;7.036;2024-03-17T04:23:19;4.70;99.90
18624;DHT22;9441;51.420;7.036;2024-03-17T04:24:20;4.60;99.90
18624;DHT22;9441;51.420;7.036;2024-03-17T04:25:22;4.70;99.90
18624;DHT22;9441;51.420;7.036;2024-03-17T04:26:25;4.60;99.90
18624;DHT22;9441;51.420;7.036;2024-03-17T04:27:27;4.60;99.90
18624;DHT22;9441;51.420;7.036;2024-03-17T04:28:29;4.70;99.90
18624;DHT22;9441;51.420;7.036;2024-03-17T04:29:30;4.70;99.90
18624;DHT22;9441;51.420;7.036;2024-03-17T04:30:32;4.70;99.90
18624;DHT22;9441;51.420;7.036;2024-03-17T04:31:33;4.80;99.90
18624;DHT22;9441;51.420;7.036;2024-03-17T04:32:35;4.80;99.90
18624;DHT22;9441;51.420;7.036;2024-03-17T04:33:37;4.80;99.90
18624;DHT22;9441;51.420;7.036;2024-03-17T04:34:38;4.90;99.90
18624;DHT22;9441;51.420;7.036;2024-03-17T04:35:40;4.90;99.90
18624;DHT22;9441;51.420;7.036;2024-03-17T04:36:42;4.80;99.90
18624;DHT22;9441;51.420;7.036;2024-03-17T04:37:44;4.80;99.90
18624;DHT22;9441;51.420;7.036;2024-03-17T04:38:45;4.80;99.90
18624;DHT22;9441;51.420;7.036;2024-03-17T04:39:47;4.80;99.90
18624;DHT22;9441;51.420;7.036;2024-03-17T04:40:48;4.80;99.90
18624;DHT22;9441;51.420;7.036;2024-03-17T04:41:51;4.80;99.90
18624;DHT22;9441;51.420;7.036;2024-03-17T04:42:54;4.80;99.90
18624;DHT22;9441;51.420;7.036;2024-03-17T04:43:55;4.90;99.90
18624;DHT22;9441;51.420;7.036;2024-03-17T04:44:57;4.90;99.90
18624;DHT22;9441;51.420;7.036;2024-03-17T04:46:02;4.90;99.90
18624;DHT22;9441;51.420;7.036;2024-03-17T04:47:05;5.00;99.90
18624;DHT22;9441;51.420;7.036;2024-03-17T04:48:07;5.00;99.90
18624;DHT22;9441;51.420;7.036;2024-03-17T04:49:08;5.00;99.90
18624;DHT22;9441;51.420;7.036;2024-03-17T04:50:10;5.10;99.90
18624;DHT22;9441;51.420;7.036;2024-03-17T04:51:15;5.10;99.90
18624;DHT22;9441;51.420;7.036;2024-03-17T04:52:17;5.10;99.90
18624;DHT22;9441;51.420;7.036;2024-03-17T04:53:18;5.10;99.90
18624;DHT22;9441;51.420;7.036;2024-03-17T04:54:19;5.20;99.90
18624;DHT22;9441;51.420;7.036;2024-03-17T04:55:21;5.10;99.90
18624;DHT22;9441;51.420;7.036;2024-03-17T04:56:22;5.20;99.90
18624;DHT22;9441;51.420;7.036;2024-03-17T04:57:26;5.10;99.90
18624;DHT22;9441;51.420;7.036;2024-03-17T04:58:27;5.10;99.90
18624;DHT22;9441;51.420;7.036;2024-03-17T04:59:29;5.00;99.90
18624;DHT22;9441;51.420;7.036;2024-03-17T05:00:30;5.00;99.90
18624;DHT22;9441;51.420;7.036;2024-03-17T05:01:32;5.00;99.90
18624;DHT22;9441;51.420;7.036;2024-03-17T05:02:36;5.10;99.90
18624;DHT22;9441;51.420;7.036;2024-03-17T05:03:39;5.00;99.90
18624;DHT22;9441;51.420;7.036;2024-03-17T05:04:40;4.90;99.90
18624;DHT22;9441;51.420;7.036;2024-03-17T05:05:42;4.90;99.90
18624;DHT22;9441;51.420;7.036;2024-03-17T05:06:44;4.90;99.90
18624;DHT22;9441;51.420;7.036;2024-03-17T05:07:47;4.90;99.90
18624;DHT22;9441;51.420;7.036;2024-03-17T05:08:50;4.90;99.90
18624;DHT22;9441;51.420;7.036;2024-03-17T05:09:51;5.00;99.90
18624;DHT22;9441;51.420;7.036;2024-03-17T05:10:56;5.00;99.90
18624;DHT22;9441;51.420;7.036;2024-03-17T05:11:58;5.00;99.90
18624;DHT22;9441;51.420;7.036;2024-03-17T05:13:01;5.00;99.90
18624;DHT22;9441;51.420;7.036;2024-03-17T05:14:03;5.00;99.90
18624;DHT22;9441;51.420;7.036;2024-03-17T05:15:06;5.00;99.90
18624;DHT22;9441;51.420;7.036;2024-03-17T05:16:08;5.00;99.90
18624;DHT22;9441;51.420;7.036;2024-03-17T05:17:10;5.00;99.90
18624;DHT22;9441;51.420;7.036;2024-03-17T05:18:11;4.90;99.90
18624;DHT22;9441;51.420;7.036;2024-03-17T05:19:13;5.00;99.90
18624;DHT22;9441;51.420;7.036;2024-03-17T05:20:14;5.00;99.90
18624;DHT22;9441;51.420;7.036;2024-03-17T05:21:16;5.00;99.90
18624;DHT22;9441;51.420;7.036;2024-03-17T05:22:17;4.90;99.90
18624;DHT22;9441;51.420;7.036;2024-03-17T05:23:19;4.90;99.90
18624;DHT22;9441;51.420;7.036;2024-03-17T05:24:20;4.90;99.90
18624;DHT22;9441;51.420;7.036;2024-03-17T05:25:22;4.90;99.90
18624;DHT22;9441;51.420;7.036;2024-03-17T05:26:23;4.90;99.90
18624;DHT22;9441;51.420;7.036;2024-03-17T05:27:25;4.90;99.90
18624;DHT22;9441;51.420;7.036;2024-03-17T05:28:29;4.90;99.90
18624;DHT22;9441;51.420;7.036;2024-03-17T05:29:30;4.90;99.90
18624;DHT22;9441;51.420;7.036;2024-03-17T05:30:31;4.90;99.90
18624;DHT22;9441;51.420;7.036;2024-03-17T05:31:33;4.90;99.90
18624;DHT22;9441;51.420;7.036;2024-03-17T05:32:34;5.00;99.90
18624;DHT22;9441;51.420;7.036;2024-03-17T05:33:36;4.90;99.90
18624;DHT22;9441;51.420;7.036;2024-03-17T05:34:38;4.90;99.90
18624;DHT22;9441;51.420;7.036;2024-03-17T05:35:40;4.90;99.90
18624;DHT22;9441;51.420;7.036;2024-03-17T05:36:41;5.00;99.90
18624;DHT22;9441;51.420;7.036;2024-03-17T05:37:43;5.00;99.90
18624;DHT22;9441;51.420;7.036;2024-03-17T05:38:44;4.90;99.90
18624;DHT22;9441;51.420;7.036;2024-03-17T05:39:46;4.90;99.90
18624;DHT22;9441;51.420;7.036;2024-03-17T05:40:57;5.00;99.90
18624;DHT22;9441;51.420;7.036;2024-03-17T05:42:00;5.00;99.90
18624;DHT22;9441;51.420;7.036;2024-03-17T05:43:04;5.00;99.90
18624;DHT22;9441;51.420;7.036;2024-03-17T05:44:06;5.00;99.90
18624;DHT22;9441;51.420;7.036;2024-03-17T05:45:09;5.00;99.90
18624;DHT22;9441;51.420;7.036;2024-03-17T05:46:12;5.10;99.90
18624;DHT22;9441;51.420;7.036;2024-03-17T05:47:14;5.10;99.90
18624;DHT22;9441;51.420;7.036;2024-03-17T05:48:16;5.10;99.90
18624;DHT22;9441;51.420;7.036;2024-03-17T05:49:17;5.20;99.90
18624;DHT22;9441;51.420;7.036;2024-03-17T05:50:20;5.20;99.90
18624;DHT22;9441;51.420;7.036;2024-03-17T05:51:21;5.20;99.90
18624;DHT22;9441;51.420;7.036;2024-03-17T05:52:26;5.30;99.90
18624;DHT22;9441;51.420;7.036;2024-03-17T05:53:27;5.30;99.90
18624;DHT22;9441;51.420;7.036;2024-03-17T05:54:28;5.30;99.90
18624;DHT22;9441;51.420;7.036;2024-03-17T05:55:30;5.40;99.90
18624;DHT22;9441;51.420;7.036;2024-03-17T05:56:31;5.30;99.90
18624;DHT22;9441;51.420;7.036;2024-03-17T05:57:33;5.30;99.90
18624;DHT22;9441;51.420;7.036;2024-03-17T05:58:34;5.20;99.90
18624;DHT22;9441;51.420;7.036;2024-03-17T05:59:37;5.30;99.90
18624;DHT22;9441;51.420;7.036;2024-03-17T06:00:39;5.20;99.90
18624;DHT22;9441;51.420;7.036;2024-03-17T06:01:41;5.30;99.90
18624;DHT22;9441;51.420;7.036;2024-03-17T06:02:43;5.30;99.90
18624;DHT22;9441;51.420;7.036;2024-03-17T06:03:47;5.30;99.90
18624;DHT22;9441;51.420;7.036;2024-03-17T06:04:48;5.30;99.90
18624;DHT22;9441;51.420;7.036;2024-03-17T06:05:49;5.40;99.90
18624;DHT22;9441;51.420;7.036;2024-03-17T06:06:51;5.30;99.90
18624;DHT22;9441;51.420;7.036;2024-03-17T06:07:53;5.30;99.90
18624;DHT22;9441;51.420;7.036;2024-03-17T06:08:54;5.40;99.90
18624;DHT22;9441;51.420;7.036;2024-03-17T06:09:56;5.50;99.90
18624;DHT22;9441;51.420;7.036;2024-03-17T06:10:57;5.50;99.90
18624;DHT22;9441;51.420;7.036;2024-03-17T06:12:01;5.40;99.90
18624;DHT22;9441;51.420;7.036;2024-03-17T06:13:02;5.50;99.90
18624;DHT22;9441;51.420;7.036;2024-03-17T06:14:04;5.60;99.90
18624;DHT22;9441;51.420;7.036;2024-03-17T06:15:11;5.70;99.90
18624;DHT22;9441;51.420;7.036;2024-03-17T06:16:13;5.70;99.90
18624;DHT22;9441;51.420;7.036;2024-03-17T06:17:15;5.70;99.90
18624;DHT22;9441;51.420;7.036;2024-03-17T06:18:16;5.80;99.90
18624;DHT22;9441;51.420;7.036;2024-03-17T06:19:18;5.80;99.90
18624;DHT22;9441;51.420;7.036;2024-03-17T06:20:21;5.80;99.90
18624;DHT22;9441;51.420;7.036;2024-03-17T06:21:22;5.90;99.90
18624;DHT22;9441;51.420;7.036;2024-03-17T06:22:24;5.90;99.90
18624;DHT22;9441;51.420;7.036;2024-03-17T06:23:26;5.90;99.90
18624;DHT22;9441;51.420;7.036;2024-03-17T06:24:28;6.00;99.90
18624;DHT22;9441;51.420;7.036;2024-03-17T06:25:29;5.90;99.90
18624;DHT22;9441;51.420;7.036;2024-03-17T06:26:31;5.90;99.90
18624;DHT22;9441;51.420;7.036;2024-03-17T06:27:34;5.90;99.90
18624;DHT22;9441;51.420;7.036;2024-03-17T06:28:36;5.90;99.90
18624;DHT22;9441;51.420;7.036;2024-03-17T06:29:37;5.70;99.90
18624;DHT22;9441;51.420;7.036;2024-03-17T06:30:41;5.80;99.90
18624;DHT22;9441;51.420;7.036;2024-03-17T06:31:42;5.80;99.90
18624;DHT22;9441;51.420;7.036;2024-03-17T06:32:46;5.90;99.90
18624;DHT22;9441;51.420;7.036;2024-03-17T06:33:47;6.00;99.90
18624;DHT22;9441;51.420;7.036;2024-03-17T06:34:49;6.00;99.90
18624;DHT22;9441;51.420;7.036;2024-03-17T06:35:50;6.10;99.90
18624;DHT22;9441;51.420;7.036;2024-03-17T06:36:52;6.00;99.90
18624;DHT22;9441;51.420;7.036;2024-03-17T06:37:53;6.00;99.90
18624;DHT22;9441;51.420;7.036;2024-03-17T06:38:54;6.00;99.90
18624;DHT22;9441;51.420;7.036;2024-03-17T06:39:56;5.90;99.90
18624;DHT22;9441;51.420;7.036;2024-03-17T06:40:57;6.00;99.90
18624;DHT22;9441;51.420;7.036;2024-03-17T06:41:59;6.00;99.90
18624;DHT22;9441;51.420;7.036;2024-03-17T06:43:00;6.20;99.90
18624;DHT22;9441;51.420;7.036;2024-03-17T06:44:01;6.30;99.90
18624;DHT22;9441;51.420;7.036;2024-03-17T06:45:04;6.20;99.90
18624;DHT22;9441;51.420;7.036;2024-03-17T06:46:07;6.30;99.90
18624;DHT22;9441;51.420;7.036;2024-03-17T06:47:09;6.30;99.90